Time;durP1;ratioP1;P1;durP2;ratioP2;P2;SDS_P1;SDS_P2;PMS_P1;PMS_P2;Temp;Humidity;BMP_temperature;BMP_pressure;BME280_temperature;BME280_humidity;BME280_pressure;Samples;Min_cycle;Max_cycle;Signal;HPM_P1;HPM_P2
2021/08/26 00:00:13;;;;;;;2.03;1.83;;;23.90;56.20;;;;;;5111291;28;20215;-70
2021/08/26 00:08:18;;;;;;;3.17;2.10;;;23.90;56.20;;;;;;5110186;28;20299;-71
2021/08/26 00:10:52;;;;;;;8.70;2.20;;;23.90;56.30;;;;;;5098738;28;20204;-70
2021/08/26 00:13:23;;;;;;;2.10;1.67;;;23.90;56.30;;;;;;5094666;28;20205;-71
2021/08/26 00:15:59;;;;;;;2.13;1.93;;;23.80;56.30;;;;;;5101272;28;20233;-71
2021/08/26 00:18:32;;;;;;;2.07;1.70;;;23.90;56.30;;;;;;5113537;27;20204;-71
2021/08/26 00:21:05;;;;;;;3.30;2.00;;;23.90;56.20;;;;;;5111885;28;20197;-71
2021/08/26 00:23:35;;;;;;;2.27;1.97;;;23.90;56.20;;;;;;5093155;27;20668;-71
2021/08/26 00:26:09;;;;;;;1.87;1.60;;;23.90;56.20;;;;;;5107303;27;20239;-71
2021/08/26 00:28:39;;;;;;;3.33;2.27;;;23.90;56.20;;;;;;5091403;28;20234;-71
2021/08/26 00:31:09;;;;;;;3.93;1.90;;;23.90;56.40;;;;;;5073936;28;20682;-71
2021/08/26 00:33:43;;;;;;;2.03;1.83;;;23.80;56.70;;;;;;5061831;28;20251;-71
2021/08/26 00:36:17;;;;;;;2.67;1.70;;;23.80;56.90;;;;;;5057263;28;20267;-71
2021/08/26 00:38:48;;;;;;;1.73;1.50;;;23.80;56.80;;;;;;5081381;28;20223;-71
2021/08/26 00:41:26;;;;;;;2.40;2.00;;;23.80;57.10;;;;;;5082551;28;20216;-71
2021/08/26 00:43:58;;;;;;;2.73;1.80;;;23.70;57.00;;;;;;5075260;28;20196;-70
2021/08/26 00:46:29;;;;;;;2.40;1.77;;;23.70;57.20;;;;;;5065417;28;20226;-71
2021/08/26 00:49:01;;;;;;;1.83;1.67;;;23.70;57.40;;;;;;5079509;28;20190;-70
2021/08/26 00:51:34;;;;;;;1.97;1.70;;;23.60;57.50;;;;;;5072807;28;20212;-71
2021/08/26 00:54:10;;;;;;;2.03;1.77;;;23.60;57.30;;;;;;5083546;28;20240;-71
2021/08/26 00:56:41;;;;;;;1.30;1.20;;;23.60;57.40;;;;;;5059541;28;20216;-70
2021/08/26 00:59:11;;;;;;;1.67;1.57;;;23.70;57.20;;;;;;5071702;28;20204;-71
2021/08/26 01:02:13;;;;;;;1.53;1.43;;;23.70;57.30;;;;;;5083445;28;20710;-70
2021/08/26 01:04:56;;;;;;;1.87;1.77;;;23.70;57.20;;;;;;5026540;28;20229;-70
2021/08/26 01:08:04;;;;;;;2.10;1.83;;;23.70;57.40;;;;;;5036753;28;20736;-70
2021/08/26 01:10:58;;;;;;;1.87;1.63;;;23.70;57.30;;;;;;5081719;28;20205;-70
2021/08/26 01:13:37;;;;;;;2.47;1.80;;;23.70;57.40;;;;;;5061076;28;20224;-70
2021/08/26 01:16:17;;;;;;;2.50;1.47;;;23.60;57.60;;;;;;5058316;28;20597;-70
2021/08/26 01:18:47;;;;;;;2.13;1.60;;;23.60;57.50;;;;;;5073159;28;20529;-70
2021/08/26 01:21:25;;;;;;;1.90;1.40;;;23.60;57.50;;;;;;5071556;28;20204;-70
2021/08/26 01:24:06;;;;;;;1.77;1.50;;;23.60;57.30;;;;;;5074870;28;20588;-70
2021/08/26 01:26:52;;;;;;;1.40;1.30;;;23.60;57.40;;;;;;5089518;27;20570;-71
2021/08/26 01:29:28;;;;;;;1.93;1.50;;;23.60;57.20;;;;;;5093472;27;20254;-70
2021/08/26 01:31:59;;;;;;;1.50;1.40;;;23.70;57.30;;;;;;5105328;28;20265;-71
2021/08/26 01:34:30;;;;;;;1.87;1.67;;;23.70;57.20;;;;;;5094292;28;20215;-70
2021/08/26 01:37:05;;;;;;;2.13;1.67;;;23.70;57.30;;;;;;5096290;28;20257;-70
2021/08/26 01:39:54;;;;;;;1.97;1.80;;;23.60;57.50;;;;;;5095950;28;20196;-70
2021/08/26 01:42:25;;;;;;;2.37;1.80;;;23.60;57.60;;;;;;5103659;28;20705;-70
2021/08/26 01:45:06;;;;;;;1.93;1.70;;;23.60;57.60;;;;;;5080873;28;20267;-70
2021/08/26 01:47:36;;;;;;;1.77;1.47;;;23.60;57.60;;;;;;5112093;27;20621;-70
2021/08/26 01:50:05;;;;;;;2.00;1.67;;;23.50;57.60;;;;;;5082233;28;20228;-70
2021/08/26 01:52:36;;;;;;;1.70;1.60;;;23.50;57.60;;;;;;5098225;28;20185;-70
2021/08/26 01:55:11;;;;;;;1.63;1.53;;;23.60;57.50;;;;;;5088608;28;20211;-71
2021/08/26 01:57:40;;;;;;;1.80;1.63;;;23.60;57.50;;;;;;5108977;28;20235;-70
2021/08/26 02:00:14;;;;;;;2.73;1.80;;;23.60;57.50;;;;;;5096980;28;20242;-70
2021/08/26 02:02:43;;;;;;;2.87;1.80;;;23.60;57.60;;;;;;5094465;28;20207;-71
2021/08/26 02:05:16;;;;;;;3.30;2.23;;;23.50;57.50;;;;;;5102151;28;20612;-70
2021/08/26 02:07:49;;;;;;;2.23;1.70;;;23.50;57.50;;;;;;5089547;28;20678;-70
2021/08/26 02:10:32;;;;;;;3.40;1.97;;;23.50;57.60;;;;;;5104737;28;20296;-70
2021/08/26 02:13:01;;;;;;;2.73;1.83;;;23.50;57.60;;;;;;5098915;28;20192;-70
2021/08/26 02:15:30;;;;;;;4.20;1.73;;;23.60;57.50;;;;;;5084268;28;20181;-71
2021/08/26 02:18:03;;;;;;;2.20;1.80;;;23.50;57.50;;;;;;5097145;28;20228;-70
2021/08/26 02:20:48;;;;;;;2.53;2.03;;;23.50;57.60;;;;;;5108194;28;20625;-70
2021/08/26 02:23:18;;;;;;;2.23;1.90;;;23.50;57.60;;;;;;5102505;28;20197;-70
2021/08/26 02:25:49;;;;;;;1.90;1.60;;;23.40;57.70;;;;;;5077021;28;20224;-71
2021/08/26 02:28:16;;;;;;;2.50;1.87;;;23.40;57.70;;;;;;5104797;28;20258;-70
2021/08/26 02:30:48;;;;;;;3.53;2.03;;;23.40;57.60;;;;;;5078333;28;20213;-70
2021/08/26 02:33:19;;;;;;;2.00;1.70;;;23.30;57.60;;;;;;5080345;28;20227;-71
2021/08/26 02:35:50;;;;;;;2.97;2.00;;;23.30;57.60;;;;;;5093822;28;20674;-71
2021/08/26 02:38:20;;;;;;;4.57;1.80;;;23.30;57.60;;;;;;5105334;28;20661;-71
2021/08/26 02:40:51;;;;;;;2.43;1.77;;;23.30;57.60;;;;;;5092283;28;20199;-71
2021/08/26 02:43:23;;;;;;;2.37;1.90;;;23.40;57.50;;;;;;5104037;28;20206;-70
2021/08/26 02:45:53;;;;;;;2.30;1.63;;;23.40;57.60;;;;;;5110524;28;20208;-70
2021/08/26 02:48:23;;;;;;;5.43;1.77;;;23.40;57.60;;;;;;5100417;28;20193;-71
2021/08/26 02:50:54;;;;;;;2.60;1.80;;;23.40;57.70;;;;;;5089202;28;20296;-70
2021/08/26 02:53:25;;;;;;;2.13;1.60;;;23.40;57.50;;;;;;5098849;28;20254;-71
2021/08/26 02:55:57;;;;;;;3.70;1.90;;;23.30;57.40;;;;;;5098524;28;20200;-70
2021/08/26 02:58:29;;;;;;;3.60;1.60;;;23.30;57.60;;;;;;5088324;28;20204;-71
2021/08/26 03:01:00;;;;;;;2.47;1.50;;;23.30;57.50;;;;;;5090321;28;20534;-71
2021/08/26 03:03:29;;;;;;;2.40;1.80;;;23.30;57.40;;;;;;5102988;28;20184;-70
2021/08/26 03:06:03;;;;;;;2.37;1.53;;;23.40;57.30;;;;;;5090691;28;20212;-71
2021/08/26 03:08:37;;;;;;;3.40;1.73;;;23.40;57.30;;;;;;5092551;28;20662;-70
2021/08/26 03:11:11;;;;;;;3.53;1.47;;;23.30;57.20;;;;;;5105462;28;20204;-71
2021/08/26 03:13:40;;;;;;;2.97;1.60;;;23.30;57.10;;;;;;5090168;28;20191;-71
2021/08/26 03:16:11;;;;;;;2.87;1.50;;;23.30;57.10;;;;;;5088622;28;20196;-71
2021/08/26 03:18:42;;;;;;;4.40;1.80;;;23.40;57.10;;;;;;5090268;28;20192;-70
2021/08/26 03:21:14;;;;;;;3.73;1.70;;;23.40;56.90;;;;;;5110180;27;20208;-71
2021/08/26 03:23:46;;;;;;;3.57;1.70;;;23.40;56.90;;;;;;5096912;27;20274;-71
2021/08/26 03:26:18;;;;;;;2.23;1.90;;;23.40;56.70;;;;;;5109000;27;20228;-70
2021/08/26 03:28:50;;;;;;;2.27;1.40;;;23.40;56.80;;;;;;5063626;28;20221;-70
2021/08/26 03:31:21;;;;;;;3.50;1.70;;;23.40;56.60;;;;;;5082885;28;20194;-70
2021/08/26 03:33:53;;;;;;;4.27;2.17;;;23.40;56.50;;;;;;5085645;28;20566;-71
2021/08/26 03:36:26;;;;;;;3.37;1.60;;;23.40;56.40;;;;;;5090248;28;20193;-70
2021/08/26 03:39:04;;;;;;;3.50;2.23;;;23.40;56.20;;;;;;5090371;28;20208;-70
2021/08/26 03:41:35;;;;;;;3.17;1.80;;;23.40;56.00;;;;;;5091063;28;20203;-71
2021/08/26 03:44:04;;;;;;;3.50;1.80;;;23.40;55.80;;;;;;5089357;28;20197;-70
2021/08/26 03:46:32;;;;;;;3.37;1.70;;;23.40;55.60;;;;;;5086575;28;20547;-70
2021/08/26 03:49:03;;;;;;;4.37;2.33;;;23.40;55.80;;;;;;5067490;28;20197;-70
2021/08/26 03:51:36;;;;;;;3.63;1.93;;;23.40;55.40;;;;;;5074355;28;20198;-70
2021/08/26 03:54:04;;;;;;;3.30;2.20;;;23.40;55.40;;;;;;5071382;28;20561;-70
2021/08/26 03:56:33;;;;;;;3.23;1.77;;;23.40;55.40;;;;;;5079963;28;20198;-71
2021/08/26 03:59:04;;;;;;;4.87;2.30;;;23.40;55.70;;;;;;5088271;28;20231;-71
2021/08/26 04:01:37;;;;;;;5.80;2.50;;;23.40;55.10;;;;;;5060901;28;20266;-71
2021/08/26 04:04:09;;;;;;;3.93;2.17;;;23.40;54.80;;;;;;5064978;28;20210;-70
2021/08/26 04:06:42;;;;;;;5.30;2.50;;;23.30;55.10;;;;;;5076784;28;20213;-70
2021/08/26 04:09:13;;;;;;;5.67;2.60;;;23.30;55.00;;;;;;5084196;28;20213;-70
2021/08/26 04:11:44;;;;;;;4.53;2.20;;;23.20;54.60;;;;;;5087706;28;20613;-70
2021/08/26 04:14:16;;;;;;;4.50;2.10;;;23.10;55.10;;;;;;5078922;28;20193;-71
2021/08/26 04:16:45;;;;;;;4.27;2.27;;;23.10;55.10;;;;;;5082949;28;20633;-70
2021/08/26 04:19:16;;;;;;;5.57;2.80;;;23.10;55.00;;;;;;5079737;28;20213;-71
2021/08/26 04:21:48;;;;;;;8.67;2.53;;;23.10;55.10;;;;;;5088690;28;20258;-70
2021/08/26 04:24:23;;;;;;;4.20;2.17;;;23.10;55.00;;;;;;5086305;28;20193;-70
2021/08/26 04:26:54;;;;;;;6.77;2.43;;;23.10;54.80;;;;;;5071004;28;20220;-70
2021/08/26 04:29:23;;;;;;;5.80;2.60;;;23.10;55.00;;;;;;5051273;28;20196;-71
2021/08/26 04:31:54;;;;;;;5.17;2.27;;;23.10;55.10;;;;;;5070846;28;20197;-70
2021/08/26 04:34:25;;;;;;;4.60;2.13;;;23.20;55.20;;;;;;5082420;28;20193;-70
2021/08/26 04:36:56;;;;;;;4.90;2.30;;;23.10;55.00;;;;;;5091725;28;20193;-70
2021/08/26 04:39:26;;;;;;;4.00;2.07;;;23.20;55.10;;;;;;5088577;28;20201;-71
2021/08/26 04:41:58;;;;;;;5.13;2.20;;;23.20;55.00;;;;;;5090710;28;20201;-70
2021/08/26 04:44:28;;;;;;;5.30;2.10;;;23.10;54.90;;;;;;5093226;28;20216;-70
2021/08/26 04:46:58;;;;;;;4.83;2.47;;;23.10;54.80;;;;;;5086326;28;20225;-71
2021/08/26 04:49:29;;;;;;;4.93;2.27;;;23.10;55.00;;;;;;5093602;28;20668;-71
2021/08/26 04:52:00;;;;;;;4.83;2.50;;;23.10;55.00;;;;;;5081623;28;20213;-70
2021/08/26 04:54:32;;;;;;;3.77;2.03;;;23.10;54.70;;;;;;5089880;28;20192;-71
2021/08/26 04:57:00;;;;;;;6.07;2.40;;;23.10;54.90;;;;;;5091664;28;20215;-71
2021/08/26 04:59:28;;;;;;;4.87;1.83;;;23.10;54.50;;;;;;5089962;28;20204;-70
2021/08/26 05:01:57;;;;;;;4.47;2.17;;;23.00;54.80;;;;;;5078485;28;20205;-70
2021/08/26 05:04:47;;;;;;;4.87;2.10;;;23.00;54.60;;;;;;5087310;28;20214;-71
2021/08/26 05:07:29;;;;;;;4.13;2.20;;;23.00;54.60;;;;;;5075003;28;20299;-71
2021/08/26 05:09:57;;;;;;;3.10;1.90;;;23.00;54.40;;;;;;5069613;28;20221;-71
2021/08/26 05:12:32;;;;;;;4.33;2.37;;;23.00;54.40;;;;;;5058635;28;20220;-69
2021/08/26 05:15:03;;;;;;;5.83;2.30;;;23.00;54.20;;;;;;5056647;28;20207;-70
2021/08/26 05:17:34;;;;;;;6.33;3.03;;;23.00;54.10;;;;;;5067906;28;20217;-70
2021/08/26 05:20:04;;;;;;;8.30;2.80;;;23.00;54.40;;;;;;5089963;28;20200;-70
2021/08/26 05:22:38;;;;;;;7.77;2.73;;;23.00;54.40;;;;;;5082501;28;20208;-70
2021/08/26 05:25:09;;;;;;;6.57;2.23;;;23.00;54.20;;;;;;5085529;28;20197;-70
2021/08/26 05:27:40;;;;;;;8.33;2.50;;;23.00;54.30;;;;;;5093143;28;20228;-70
2021/08/26 05:30:09;;;;;;;6.20;2.60;;;23.00;54.20;;;;;;5098421;28;20196;-70
2021/08/26 05:32:39;;;;;;;5.77;2.77;;;23.00;54.30;;;;;;5103240;28;20250;-70
2021/08/26 05:35:10;;;;;;;5.03;2.40;;;23.00;54.40;;;;;;5093502;28;20260;-71
2021/08/26 05:37:41;;;;;;;4.63;2.27;;;23.00;54.30;;;;;;5105891;28;20658;-71
2021/08/26 05:40:11;;;;;;;5.20;2.50;;;23.00;54.30;;;;;;5096365;28;20211;-71
2021/08/26 05:42:42;;;;;;;5.63;2.50;;;23.00;53.80;;;;;;5104990;28;20700;-71
2021/08/26 05:45:15;;;;;;;3.87;2.20;;;23.00;54.30;;;;;;5100137;28;20209;-71
2021/08/26 05:47:43;;;;;;;5.97;2.40;;;23.00;54.20;;;;;;5102001;28;20674;-71
2021/08/26 05:50:13;;;;;;;4.10;2.03;;;23.00;54.20;;;;;;5100002;28;20512;-71
2021/08/26 05:52:43;;;;;;;4.50;2.40;;;23.00;54.30;;;;;;5086169;28;20204;-70
2021/08/26 05:55:13;;;;;;;3.50;1.87;;;23.00;54.40;;;;;;5094157;28;20700;-70
2021/08/26 05:57:45;;;;;;;4.00;1.90;;;23.10;54.30;;;;;;5101927;28;20293;-71
2021/08/26 06:00:18;;;;;;;5.93;2.30;;;23.10;54.30;;;;;;5090970;27;20208;-71
2021/08/26 06:02:48;;;;;;;4.67;2.00;;;23.10;54.30;;;;;;5078414;28;20212;-70
2021/08/26 06:05:19;;;;;;;4.13;2.13;;;23.10;54.30;;;;;;5081694;28;20261;-71
2021/08/26 06:07:48;;;;;;;3.70;2.03;;;23.10;54.00;;;;;;5069392;28;20536;-71
2021/08/26 06:10:18;;;;;;;5.57;2.70;;;23.10;54.10;;;;;;5107154;28;20815;-71
2021/08/26 06:12:47;;;;;;;5.10;2.40;;;23.10;54.10;;;;;;5093151;28;20232;-71
2021/08/26 06:15:18;;;;;;;4.27;2.13;;;23.10;54.20;;;;;;5108225;28;20208;-71
2021/08/26 06:17:48;;;;;;;3.90;2.30;;;23.10;54.10;;;;;;5076284;28;20232;-71
2021/08/26 06:20:24;;;;;;;4.77;2.20;;;23.10;54.20;;;;;;5101857;28;20201;-70
2021/08/26 06:22:56;;;;;;;4.93;2.20;;;23.10;54.10;;;;;;5080923;28;20191;-71
2021/08/26 06:25:26;;;;;;;3.83;2.10;;;23.10;54.00;;;;;;5102183;28;20219;-70
2021/08/26 06:28:00;;;;;;;4.03;2.30;;;23.10;53.90;;;;;;5097888;28;20553;-71
2021/08/26 06:30:35;;;;;;;5.17;2.60;;;23.10;53.90;;;;;;5098276;28;20634;-71
2021/08/26 06:33:04;;;;;;;4.47;2.33;;;23.10;53.80;;;;;;5092386;28;20196;-70
2021/08/26 06:35:38;;;;;;;6.03;2.50;;;23.10;53.90;;;;;;5066813;28;20193;-70
2021/08/26 06:38:08;;;;;;;3.53;1.80;;;23.10;53.70;;;;;;5078609;28;20212;-70
2021/08/26 06:40:39;;;;;;;4.67;2.53;;;23.00;53.90;;;;;;5089494;28;20222;-71
2021/08/26 06:43:11;;;;;;;5.40;2.17;;;23.10;54.00;;;;;;5105017;28;20205;-71
2021/08/26 06:45:40;;;;;;;5.77;2.13;;;23.00;53.90;;;;;;5097197;28;20560;-71
2021/08/26 06:48:10;;;;;;;6.13;2.33;;;23.00;53.40;;;;;;5084934;28;20211;-71
2021/08/26 06:50:41;;;;;;;6.10;2.20;;;23.00;53.60;;;;;;5086936;28;20211;-68
2021/08/26 06:53:18;;;;;;;10.00;3.10;;;23.00;53.60;;;;;;5109409;28;20215;-71
2021/08/26 06:55:49;;;;;;;20.37;3.80;;;22.90;54.10;;;;;;5105219;28;20569;-70
2021/08/26 06:58:20;;;;;;;18.83;4.47;;;23.00;54.40;;;;;;5107208;28;20634;-71
2021/08/26 07:00:54;;;;;;;25.13;5.23;;;22.90;54.00;;;;;;5098401;27;20857;-66
2021/08/26 07:03:24;;;;;;;15.77;4.70;;;23.00;54.80;;;;;;5106756;28;20261;-70
2021/08/26 07:05:59;;;;;;;15.20;4.07;;;23.00;54.90;;;;;;5107433;28;20231;-72
2021/08/26 07:08:32;;;;;;;14.00;3.93;;;23.10;54.90;;;;;;5067850;28;20203;-70
2021/08/26 07:11:02;;;;;;;9.30;3.20;;;23.10;54.90;;;;;;5109425;28;20214;-69
2021/08/26 07:13:31;;;;;;;13.83;3.63;;;23.10;54.50;;;;;;5090597;28;20188;-70
2021/08/26 07:16:05;;;;;;;15.20;4.40;;;23.20;54.70;;;;;;5100586;28;20201;-69
2021/08/26 07:18:37;;;;;;;8.80;2.73;;;23.20;54.70;;;;;;5092080;28;20232;-69
2021/08/26 07:21:08;;;;;;;5.50;3.07;;;23.20;54.10;;;;;;5108193;27;20294;-68
2021/08/26 07:23:38;;;;;;;11.00;3.00;;;23.30;54.40;;;;;;5110683;28;20551;-69
2021/08/26 07:26:09;;;;;;;10.63;3.27;;;23.30;54.10;;;;;;5091858;28;20200;-69
2021/08/26 07:28:40;;;;;;;6.17;2.50;;;23.40;54.00;;;;;;5105030;28;20715;-69
2021/08/26 07:31:09;;;;;;;9.73;2.80;;;23.40;53.60;;;;;;5106024;28;20208;-70
2021/08/26 07:33:51;;;;;;;9.50;3.33;;;23.40;53.30;;;;;;5085539;28;20288;-70
2021/08/26 07:36:23;;;;;;;5.93;2.57;;;23.50;53.10;;;;;;5100169;28;20201;-70
2021/08/26 07:38:53;;;;;;;7.23;2.87;;;23.50;53.30;;;;;;5105546;28;20196;-71
2021/08/26 07:41:29;;;;;;;5.37;2.30;;;23.60;53.00;;;;;;5073443;28;20212;-70
2021/08/26 07:44:02;;;;;;;8.07;2.23;;;23.60;53.10;;;;;;5102167;28;20936;-70
2021/08/26 07:46:37;;;;;;;7.97;3.20;;;23.60;53.00;;;;;;5091783;28;20836;-70
2021/08/26 07:49:12;;;;;;;7.10;2.80;;;23.70;52.90;;;;;;5109893;28;20200;-70
2021/08/26 07:51:44;;;;;;;9.07;2.90;;;23.70;52.20;;;;;;5105598;28;20196;-69
2021/08/26 07:54:15;;;;;;;7.03;3.00;;;23.70;51.70;;;;;;5106900;28;20200;-70
2021/08/26 07:56:47;;;;;;;7.00;2.50;;;23.70;51.70;;;;;;5106604;28;20193;-71
2021/08/26 07:59:16;;;;;;;8.43;2.60;;;23.70;51.80;;;;;;5108257;28;20205;-71
2021/08/26 08:01:46;;;;;;;8.33;2.50;;;23.70;52.20;;;;;;5107414;28;20217;-71
2021/08/26 08:04:16;;;;;;;10.07;2.60;;;23.70;52.40;;;;;;5102375;28;20255;-69
2021/08/26 08:06:47;;;;;;;5.57;2.27;;;23.80;52.90;;;;;;5107752;28;20224;-70
2021/08/26 08:09:18;;;;;;;4.80;2.00;;;23.80;52.20;;;;;;5100750;28;20192;-70
2021/08/26 08:11:48;;;;;;;8.40;2.60;;;23.80;52.30;;;;;;5090877;28;20187;-69
2021/08/26 08:14:18;;;;;;;6.33;2.50;;;23.90;52.40;;;;;;5107231;28;20197;-69
2021/08/26 08:16:50;;;;;;;5.73;2.30;;;23.90;51.90;;;;;;5105452;28;20534;-73
2021/08/26 08:19:23;;;;;;;5.33;2.50;;;23.90;51.50;;;;;;5107206;28;20204;-72
2021/08/26 08:21:55;;;;;;;7.23;2.37;;;23.90;51.60;;;;;;5095311;28;20194;-73
2021/08/26 08:24:23;;;;;;;3.07;1.90;;;23.90;51.90;;;;;;5090446;28;20200;-70
2021/08/26 08:26:55;;;;;;;5.77;2.30;;;24.00;52.00;;;;;;5109381;28;20230;-75
2021/08/26 08:29:26;;;;;;;4.87;2.27;;;24.00;52.10;;;;;;5071515;28;20225;-71
2021/08/26 08:32:02;;;;;;;5.53;1.97;;;24.10;52.00;;;;;;5098029;28;20219;-70
2021/08/26 08:34:34;;;;;;;6.13;2.57;;;24.10;52.20;;;;;;5110627;28;20207;-70
2021/08/26 08:37:20;;;;;;;4.83;2.27;;;24.10;52.30;;;;;;5109607;28;20240;-72
2021/08/26 08:39:49;;;;;;;7.40;2.47;;;24.10;51.90;;;;;;5074648;28;20201;-71
2021/08/26 08:42:19;;;;;;;5.83;2.40;;;24.10;52.40;;;;;;5112445;28;20212;-75
2021/08/26 08:44:51;;;;;;;6.83;2.77;;;24.10;52.20;;;;;;5105357;28;20684;-72
2021/08/26 08:47:21;;;;;;;6.97;1.83;;;24.10;52.60;;;;;;5107009;28;20216;-73
2021/08/26 08:49:54;;;;;;;6.13;2.27;;;24.20;53.10;;;;;;5075622;28;20196;-69
2021/08/26 08:52:25;;;;;;;5.07;2.00;;;24.20;52.90;;;;;;5108938;28;20208;-74
2021/08/26 08:54:55;;;;;;;5.47;2.17;;;24.30;52.70;;;;;;5102053;28;20228;-71
2021/08/26 08:57:26;;;;;;;6.37;1.60;;;24.20;52.30;;;;;;5109467;28;20204;-72
2021/08/26 08:59:58;;;;;;;5.17;2.00;;;24.20;52.30;;;;;;5105563;28;20541;-69
2021/08/26 09:02:33;;;;;;;7.70;1.87;;;24.30;52.40;;;;;;5089708;28;20623;-70
2021/08/26 09:05:06;;;;;;;3.63;2.10;;;24.30;52.70;;;;;;5105301;28;20257;-71
2021/08/26 09:07:38;;;;;;;6.67;2.30;;;24.30;52.50;;;;;;5087248;28;20788;-70
2021/08/26 09:10:12;;;;;;;8.23;2.23;;;24.40;53.40;;;;;;5077901;28;20200;-72
2021/08/26 09:12:46;;;;;;;7.10;2.20;;;24.40;52.70;;;;;;5104080;28;20208;-70
2021/08/26 09:15:21;;;;;;;6.13;2.30;;;24.40;53.40;;;;;;5103161;28;20196;-70
2021/08/26 09:18:19;;;;;;;5.53;1.67;;;24.40;52.80;;;;;;5082429;28;20232;-70
2021/08/26 09:21:17;;;;;;;7.87;2.17;;;24.50;52.70;;;;;;5086559;28;20241;-71
2021/08/26 09:24:02;;;;;;;7.53;2.67;;;24.50;52.80;;;;;;5097889;28;20224;-71
2021/08/26 09:26:32;;;;;;;3.93;1.93;;;24.40;52.70;;;;;;5107385;28;20214;-71
2021/08/26 09:29:08;;;;;;;5.97;1.70;;;24.50;52.80;;;;;;5086774;28;20224;-72
2021/08/26 09:31:38;;;;;;;4.87;2.07;;;24.60;52.80;;;;;;5086652;28;20197;-71
2021/08/26 09:34:35;;;;;;;6.40;2.47;;;24.50;52.70;;;;;;5105679;28;20184;-72
2021/08/26 09:37:06;;;;;;;6.77;2.23;;;24.60;52.60;;;;;;5106314;28;20239;-71
2021/08/26 09:39:38;;;;;;;2.73;1.50;;;24.60;52.80;;;;;;5104584;28;20196;-72
2021/08/26 09:42:13;;;;;;;6.87;1.83;;;24.60;52.60;;;;;;5089125;28;20214;-70
2021/08/26 09:44:44;;;;;;;3.90;1.70;;;24.70;52.60;;;;;;5105201;28;20206;-70
2021/08/26 09:47:15;;;;;;;5.20;1.93;;;24.70;52.40;;;;;;5087300;28;20228;-70
2021/08/26 09:49:46;;;;;;;4.43;2.10;;;24.70;52.40;;;;;;5105821;28;20215;-70
2021/08/26 09:52:18;;;;;;;4.37;1.67;;;24.70;52.40;;;;;;5093401;28;20200;-71
2021/08/26 09:54:51;;;;;;;6.83;1.90;;;24.70;52.40;;;;;;5098052;28;20208;-71
2021/08/26 09:57:33;;;;;;;3.60;1.50;;;24.70;52.60;;;;;;5100211;28;20200;-71
2021/08/26 10:00:06;;;;;;;3.07;1.70;;;24.70;52.40;;;;;;5113618;28;20211;-70
2021/08/26 10:02:48;;;;;;;3.87;1.60;;;24.70;52.40;;;;;;5105888;28;20208;-69
2021/08/26 10:05:24;;;;;;;4.50;1.60;;;24.70;52.40;;;;;;5090189;28;20203;-69
2021/08/26 10:07:53;;;;;;;3.93;1.50;;;24.70;52.30;;;;;;5107192;28;20266;-69
2021/08/26 10:10:24;;;;;;;2.93;1.47;;;24.70;52.60;;;;;;5101697;28;20208;-69
2021/08/26 10:13:13;;;;;;;4.07;1.50;;;24.70;52.50;;;;;;5096985;28;20227;-69
2021/08/26 10:15:45;;;;;;;4.20;1.53;;;24.70;52.50;;;;;;5106471;28;20258;-70
2021/08/26 10:18:19;;;;;;;2.07;1.53;;;24.70;52.60;;;;;;5091752;28;20204;-70
2021/08/26 10:20:50;;;;;;;4.27;1.83;;;24.70;52.10;;;;;;5107247;28;20200;-71
2021/08/26 10:23:21;;;;;;;5.23;1.90;;;24.80;52.10;;;;;;5104517;28;20743;-70
2021/08/26 10:25:55;;;;;;;3.93;1.50;;;24.70;52.00;;;;;;5102054;28;20189;-70
2021/08/26 10:28:26;;;;;;;4.63;2.10;;;24.50;52.40;;;;;;5077188;28;20250;-70
2021/08/26 10:30:58;;;;;;;4.13;1.80;;;24.40;52.90;;;;;;5083255;28;20658;-71
2021/08/26 10:33:29;;;;;;;5.10;2.13;;;24.40;53.40;;;;;;5078978;28;20210;-70
2021/08/26 10:36:02;;;;;;;4.07;1.60;;;24.40;53.30;;;;;;5101092;28;20561;-71
2021/08/26 10:38:36;;;;;;;4.37;1.73;;;24.40;53.50;;;;;;5082735;28;20232;-70
2021/08/26 10:41:28;;;;;;;2.93;1.63;;;24.30;53.50;;;;;;5081650;28;20205;-70
2021/08/26 10:44:15;;;;;;;3.43;1.90;;;24.30;53.60;;;;;;5104630;28;20562;-70
2021/08/26 10:47:02;;;;;;;2.80;1.60;;;24.20;54.00;;;;;;5080751;28;20207;-70
2021/08/26 10:49:30;;;;;;;4.47;1.90;;;24.20;54.00;;;;;;5104468;28;20234;-71
2021/08/26 10:52:01;;;;;;;2.73;1.40;;;24.20;53.90;;;;;;5094116;28;20525;-69
2021/08/26 10:54:34;;;;;;;4.37;1.60;;;24.20;54.00;;;;;;5103773;28;20207;-70
2021/08/26 10:57:49;;;;;;;10.90;1.90;;;24.10;54.50;;;;;;5083908;28;20509;-70
2021/08/26 11:00:49;;;;;;;4.43;2.03;;;24.10;55.00;;;;;;5099837;28;20205;-70
2021/08/26 11:03:35;;;;;;;2.73;1.40;;;24.20;55.10;;;;;;5086101;28;20205;-69
2021/08/26 11:06:22;;;;;;;4.97;1.50;;;24.20;54.90;;;;;;5096978;28;20196;-69
2021/08/26 11:09:22;;;;;;;2.90;1.77;;;24.30;54.70;;;;;;5105522;28;20215;-71
2021/08/26 11:11:59;;;;;;;4.23;1.80;;;24.30;54.80;;;;;;5105674;28;20281;-71
2021/08/26 11:14:28;;;;;;;2.90;1.37;;;24.40;54.40;;;;;;5081170;28;20196;-69
2021/08/26 11:17:05;;;;;;;4.13;1.40;;;24.40;54.60;;;;;;5081005;28;20254;-71
2021/08/26 11:19:38;;;;;;;3.77;1.40;;;24.40;54.40;;;;;;5107133;28;20184;-71
2021/08/26 11:22:10;;;;;;;2.97;1.27;;;24.50;54.40;;;;;;5081913;28;21032;-70
2021/08/26 11:24:50;;;;;;;4.57;1.40;;;24.50;54.20;;;;;;5082952;28;20200;-72
2021/08/26 11:27:29;;;;;;;2.70;1.50;;;24.60;54.00;;;;;;5106851;28;20649;-71
2021/08/26 11:30:19;;;;;;;2.77;1.43;;;24.60;54.10;;;;;;5066433;28;20503;-71
2021/08/26 11:32:50;;;;;;;2.53;1.27;;;24.60;54.00;;;;;;5100483;28;20201;-72
2021/08/26 11:35:22;;;;;;;3.53;1.50;;;24.60;53.60;;;;;;5104630;28;20217;-72
2021/08/26 11:37:54;;;;;;;2.27;1.43;;;24.70;53.60;;;;;;5107985;28;20632;-73
2021/08/26 11:40:33;;;;;;;3.60;1.83;;;24.70;53.50;;;;;;5096316;28;20219;-72
2021/08/26 11:43:06;;;;;;;3.27;1.40;;;24.80;53.20;;;;;;5104836;27;20200;-73
2021/08/26 11:45:40;;;;;;;2.70;1.30;;;24.80;53.00;;;;;;5110807;27;20212;-72
2021/08/26 11:48:12;;;;;;;2.23;1.40;;;24.80;52.80;;;;;;5092068;27;20211;-71
2021/08/26 11:50:43;;;;;;;10.20;1.63;;;24.90;53.10;;;;;;5108569;27;20216;-73
2021/08/26 11:53:15;;;;;;;3.10;1.50;;;24.90;53.00;;;;;;5088074;28;20205;-73
2021/08/26 11:55:49;;;;;;;2.90;1.40;;;25.00;53.10;;;;;;5098816;28;20220;-73
2021/08/26 11:58:17;;;;;;;2.97;1.40;;;24.90;52.80;;;;;;5092109;28;20208;-74
2021/08/26 12:00:53;;;;;;;5.00;1.87;;;24.90;52.50;;;;;;5107244;27;20211;-74
2021/08/26 12:03:25;;;;;;;4.63;2.00;;;25.00;52.80;;;;;;5104916;27;20230;-72
2021/08/26 12:05:57;;;;;;;4.60;1.77;;;25.00;52.70;;;;;;5109485;27;20307;-70
2021/08/26 12:08:27;;;;;;;5.23;1.80;;;25.00;52.60;;;;;;5108040;28;20710;-71
2021/08/26 12:11:06;;;;;;;3.93;1.50;;;25.00;53.00;;;;;;5109744;27;20230;-69
2021/08/26 12:13:44;;;;;;;4.43;1.77;;;25.00;52.60;;;;;;5109827;28;20673;-70
2021/08/26 12:16:27;;;;;;;4.23;1.60;;;24.90;52.50;;;;;;5108256;27;20272;-69
2021/08/26 12:18:58;;;;;;;4.57;1.63;;;24.90;52.50;;;;;;5105135;27;20284;-70
2021/08/26 12:21:28;;;;;;;5.00;1.67;;;24.90;52.50;;;;;;5112164;27;20202;-70
2021/08/26 12:23:56;;;;;;;2.67;1.40;;;24.90;52.50;;;;;;5090180;28;20242;-69
2021/08/26 12:26:40;;;;;;;3.07;1.43;;;24.80;52.50;;;;;;5093191;27;20457;-69
2021/08/26 12:29:12;;;;;;;4.07;1.70;;;24.80;52.40;;;;;;5104915;28;20231;-69
2021/08/26 12:31:47;;;;;;;3.30;2.03;;;24.80;52.50;;;;;;5103444;28;20200;-70
2021/08/26 12:34:16;;;;;;;5.80;2.60;;;24.80;52.40;;;;;;5109115;28;20177;-68
2021/08/26 12:36:45;;;;;;;7.70;2.57;;;24.70;52.90;;;;;;5106177;28;20207;-69
2021/08/26 12:39:28;;;;;;;3.27;1.57;;;24.70;52.60;;;;;;5089033;27;21554;-68
2021/08/26 12:42:08;;;;;;;5.13;2.30;;;24.70;53.50;;;;;;5106161;28;20261;-70
2021/08/26 12:44:39;;;;;;;4.93;1.73;;;24.70;53.20;;;;;;5103119;28;20287;-71
2021/08/26 12:47:12;;;;;;;4.63;2.40;;;24.60;53.40;;;;;;5105840;28;20193;-68
2021/08/26 12:49:48;;;;;;;4.67;2.00;;;24.70;53.40;;;;;;5091236;28;20250;-67
2021/08/26 12:52:16;;;;;;;6.17;1.90;;;24.70;53.50;;;;;;5106937;28;20240;-69
2021/08/26 12:54:59;;;;;;;4.90;1.97;;;24.70;53.70;;;;;;5085747;28;20279;-68
2021/08/26 12:57:33;;;;;;;6.07;2.07;;;24.70;53.60;;;;;;5088983;28;20208;-72
2021/08/26 13:00:04;;;;;;;5.13;2.23;;;24.70;53.60;;;;;;5098976;28;20198;-68
2021/08/26 13:02:59;;;;;;;4.60;2.43;;;24.70;53.50;;;;;;5090790;28;20188;-68
2021/08/26 13:05:43;;;;;;;8.30;2.30;;;24.80;53.50;;;;;;5110422;27;20200;-68
2021/08/26 13:08:16;;;;;;;6.63;2.50;;;24.70;53.30;;;;;;5089241;28;20692;-68
2021/08/26 13:10:49;;;;;;;5.63;3.00;;;24.70;52.70;;;;;;5091569;28;20667;-71
2021/08/26 13:13:20;;;;;;;5.63;2.20;;;24.70;52.80;;;;;;5106966;28;20317;-70
2021/08/26 13:15:51;;;;;;;4.23;2.27;;;24.70;53.00;;;;;;5109247;28;20788;-70
2021/08/26 13:18:21;;;;;;;5.27;2.50;;;24.70;52.30;;;;;;5098624;28;20207;-70
2021/08/26 13:20:51;;;;;;;5.27;2.00;;;24.70;52.50;;;;;;5103784;27;20200;-68
2021/08/26 13:23:23;;;;;;;4.97;2.27;;;24.70;52.40;;;;;;5088721;28;20204;-69